Spar Hydra — LAKL7 — position and weather

sailwx.info

Track history (hours):
 
Tides and Currents Weather Stations Pressure Air Temp Water Temp Dewpoint Dewpoint Depression Visibility Wind Speed Wind Dir Waves Ship Positions

Spar Hydra

Last reported at 2018-Apr-20 07:29 UTC. Time now 2018-Apr-20 09:01 UTC.
Position N 55°35' E 010°31'.

Length 190 m; draft 7 m.

Type: Cargo ship. MMSI: 259701000.

Date/timePositionNaut miles runAvg speedWind from/ knotsBaromVisibWave heightAir tempDewpointWater temp
2018-Apr-20 07:29N 55°35' E 010°31'0 0.0
2018-Apr-20 06:56N 55°35' E 010°31'0 0.0
2018-Apr-20 06:17N 55°35' E 010°31'0 0.0
2018-Apr-20 05:59N 55°35' E 010°31'0 0.0
2018-Apr-20 05:29N 55°35' E 010°31'0 0.0
2018-Apr-20 04:44N 55°35' E 010°31'0 0.2
2018-Apr-20 03:43N 55°34' E 010°32'1 2.2
2018-Apr-20 03:19N 55°35' E 010°33'3 9.6
2018-Apr-20 03:00N 55°38' E 010°33'611.1
2018-Apr-20 02:30N 55°41' E 010°42'5 9.1
2018-Apr-20 01:55N 55°45' E 010°48'5 8.2
2018-Apr-20 01:19N 55°50' E 010°48'1010.7
2018-Apr-20 00:22N 55°57' E 010°60'411.8
2018-Apr-20 00:00N 56°01' E 011°04'812.2
2018-Apr-19 23:20N 56°08' E 011°11'412.5
2018-Apr-19 23:00N 56°11' E 011°16'612.3
2018-Apr-19 22:30N 56°17' E 011°22'611.4
2018-Apr-19 21:57N 56°22' E 011°27'611.8
2018-Apr-19 21:29N 56°27' E 011°33'611.1
2018-Apr-19 20:59N 56°32' E 011°37'510.6
2018-Apr-19 20:30N 56°36' E 011°43'4 7.9
2018-Apr-19 20:00N 56°39' E 011°46'612.2
2018-Apr-19 19:30N 56°45' E 011°51'712.7
2018-Apr-19 18:59N 56°51' E 011°48'613.1
2018-Apr-19 18:30N 56°57' E 011°44'612.7
2018-Apr-19 18:00N 57°03' E 011°40'611.3
2018-Apr-19 17:30N 57°08' E 011°37'5 9.6
2018-Apr-19 17:00N 57°13' E 011°34'5 9.5
2018-Apr-19 16:30N 57°17' E 011°31'5 9.6
2018-Apr-19 16:00N 57°22' E 011°28'4 8.1
2018-Apr-19 15:30N 57°25' E 011°25'4 7.1
2018-Apr-19 15:00N 57°29' E 011°22'4 7.2
2018-Apr-19 14:30N 57°31' E 011°17'4 7.2
2018-Apr-19 14:00N 57°34' E 011°12'4 7.5
2018-Apr-19 13:30N 57°36' E 011°07'4 7.6
2018-Apr-19 13:00N 57°39' E 011°02'4 7.4
2018-Apr-19 12:30N 57°41' E 010°57'4 7.5
2018-Apr-19 12:00N 57°44' E 010°52'4 7.9
2018-Apr-19 11:30N 57°46' E 010°46'5 9.6
2018-Apr-19 11:00N 57°49' E 010°39'4 8.5
2018-Apr-19 10:30N 57°50' E 010°31'4 8.3
2018-Apr-19 10:00N 57°51' E 010°24'510.4
2018-Apr-19 09:30N 57°52' E 010°14'510.4
2018-Apr-19 08:59N 57°52' E 010°04'510.5
2018-Apr-19 08:30N 57°52' E 009°55'510.7
2018-Apr-19 08:00N 57°53' E 009°44'510.1
2018-Apr-19 07:30N 57°51' E 009°36'5 9.0
2018-Apr-19 06:59N 57°48' E 009°28'5 9.2
2018-Apr-19 06:29N 57°46' E 009°21'5 9.4
2018-Apr-19 05:56N 57°43' E 009°13'3 7.5
2018-Apr-19 05:30N 57°39' E 009°12'4 8.7
2018-Apr-19 05:00N 57°37' E 009°05'5 9.4
2018-Apr-19 04:29N 57°35' E 008°57'910.7
2018-Apr-19 03:41N 57°31' E 008°43'32013.7
2018-Apr-18 04:18N 53°06' E 003°27'515.7
2018-Apr-18 04:00N 53°02' E 003°25'915.8
2018-Apr-18 03:27N 52°53' E 003°20'815.8
2018-Apr-18 02:57N 52°46' E 003°14'715.6
2018-Apr-18 02:29N 52°40' E 003°08'5012.7
2018-Apr-17 22:35N 51°50' E 003°08'111.9
2018-Apr-17 22:30N 51°50' E 003°09'611.6
2018-Apr-17 21:58N 51°44' E 003°13'510.9
2018-Apr-17 21:30N 51°39' E 003°12'611.6
2018-Apr-17 21:00N 51°34' E 003°09'611.6
2018-Apr-17 20:30N 51°29' E 003°03'4 8.8
2018-Apr-17 20:00N 51°25' E 003°02'815.1
2018-Apr-17 19:30N 51°25' E 003°14'815.9
2018-Apr-17 19:00N 51°25' E 003°27'713.1
2018-Apr-17 18:30N 51°26' E 003°37'713.4
2018-Apr-17 18:00N 51°22' E 003°45'714.5
2018-Apr-17 17:30N 51°23' E 003°57'3 6.8
2018-Apr-17 17:00N 51°23' E 004°02'612.2
2018-Apr-17 16:31N 51°24' E 004°12'611.6
2018-Apr-17 16:01N 51°19' E 004°16'2 4.5
2018-Apr-17 15:31N 51°17' E 004°15'0 0.0
2018-Apr-17 15:01N 51°17' E 004°15'0 0.0
2018-Apr-17 14:30N 51°17' E 004°15'1 1.5
2018-Apr-17 14:00N 51°16' E 004°14'1 1.1
2018-Apr-17 13:22N 51°15' E 004°14'0 0.0
2018-Apr-17 12:58N 51°15' E 004°14'0 0.0
2018-Apr-17 12:28N 51°15' E 004°14'0 0.0
2018-Apr-17 11:58N 51°15' E 004°14'0 0.0
2018-Apr-17 11:28N 51°15' E 004°14'0 0.0
2018-Apr-17 10:58N 51°15' E 004°14'0 0.0
2018-Apr-17 10:28N 51°15' E 004°14'0 0.0
2018-Apr-17 09:58N 51°15' E 004°14'0 0.0
2018-Apr-17 09:28N 51°15' E 004°14'0 0.0
2018-Apr-17 08:58N 51°15' E 004°14'0 0.0
2018-Apr-17 08:28N 51°15' E 004°14'0 0.0
2018-Apr-17 07:58N 51°15' E 004°14'0 0.0
2018-Apr-17 07:22N 51°15' E 004°14'0 0.0
2018-Apr-17 06:52N 51°15' E 004°14'0 0.0
2018-Apr-17 06:25N 51°15' E 004°14'0 0.0
2018-Apr-17 05:58N 51°15' E 004°14'0 0.0
2018-Apr-17 05:28N 51°15' E 004°14'0 0.0
2018-Apr-17 04:58N 51°15' E 004°14'0 0.0
2018-Apr-17 04:28N 51°15' E 004°14'0 0.0
2018-Apr-17 03:55N 51°15' E 004°14'0 0.0
2018-Apr-17 03:28N 51°15' E 004°14'0 0.0
2018-Apr-17 02:58N 51°15' E 004°14'0 0.0
2018-Apr-17 02:28N 51°15' E 004°14'0 0.0
2018-Apr-17 01:58N 51°15' E 004°14'0 0.0
2018-Apr-17 01:25N 51°15' E 004°14'0 0.0
2018-Apr-17 00:58N 51°15' E 004°14'0 0.0
2018-Apr-17 00:28N 51°15' E 004°14'0 0.0
2018-Apr-16 23:58N 51°15' E 004°14'0 0.0
2018-Apr-16 23:28N 51°15' E 004°14'0 0.0
2018-Apr-16 22:58N 51°15' E 004°14'0 0.0
2018-Apr-16 22:28N 51°15' E 004°14'0 0.0
2018-Apr-16 21:58N 51°15' E 004°14'0 0.0
2018-Apr-16 21:28N 51°15' E 004°14'0 0.0
2018-Apr-16 20:58N 51°15' E 004°14'0 0.0
2018-Apr-16 20:28N 51°15' E 004°14'0 0.0
2018-Apr-16 19:55N 51°15' E 004°14'0 0.0
2018-Apr-16 19:28N 51°15' E 004°14'0 0.0
2018-Apr-16 18:49N 51°15' E 004°14'0 0.0
2018-Apr-16 18:28N 51°15' E 004°14'0 0.0
2018-Apr-16 17:55N 51°15' E 004°14'0 0.0
2018-Apr-16 17:28N 51°15' E 004°14'0 0.0
2018-Apr-16 16:55N 51°15' E 004°14'0 0.0
2018-Apr-16 16:28N 51°15' E 004°14'0 0.0
2018-Apr-16 15:58N 51°15' E 004°14'0 0.0
2018-Apr-16 15:28N 51°15' E 004°14'0 0.0
2018-Apr-16 14:58N 51°15' E 004°14'0 0.0
2018-Apr-16 14:19N 51°15' E 004°14'0 0.0
2018-Apr-16 13:55N 51°15' E 004°14'0 0.0
2018-Apr-16 13:28N 51°15' E 004°14'0 0.0
2018-Apr-16 12:58N 51°15' E 004°14'0 0.0
2018-Apr-16 12:28N 51°15' E 004°14'0 0.0
2018-Apr-16 11:49N 51°15' E 004°14'0 0.0
2018-Apr-16 11:25N 51°15' E 004°14'0 0.0
2018-Apr-16 10:55N 51°15' E 004°14'0 0.0
2018-Apr-16 10:28N 51°15' E 004°14'0 0.0
2018-Apr-16 09:55N 51°15' E 004°14'0 0.0
2018-Apr-16 09:28N 51°15' E 004°14'0 0.0
2018-Apr-16 08:58N 51°15' E 004°14'0 0.0
2018-Apr-16 08:25N 51°15' E 004°14'0 0.0
2018-Apr-16 07:55N 51°15' E 004°14'0 0.0
2018-Apr-16 07:28N 51°15' E 004°14'0 0.0
2018-Apr-16 06:58N 51°15' E 004°14'0 0.0
2018-Apr-16 06:28N 51°15' E 004°14'0 0.0
2018-Apr-16 05:58N 51°15' E 004°14'0 0.0
2018-Apr-16 05:28N 51°15' E 004°14'0 0.0
2018-Apr-16 04:58N 51°15' E 004°14'0 0.0
2018-Apr-16 04:25N 51°15' E 004°14'0 0.0
2018-Apr-16 03:52N 51°15' E 004°14'0 0.0
2018-Apr-16 03:28N 51°15' E 004°14'0 0.0
2018-Apr-16 02:58N 51°15' E 004°14'0 0.0
2018-Apr-16 02:28N 51°15' E 004°14'0 0.0
2018-Apr-16 01:58N 51°15' E 004°14'0 0.0
2018-Apr-16 01:28N 51°15' E 004°14'0 0.0
2018-Apr-16 00:58N 51°15' E 004°14'0 0.0
2018-Apr-16 00:28N 51°15' E 004°14'0 0.0
2018-Apr-15 23:58N 51°15' E 004°14'0 0.0
2018-Apr-15 23:28N 51°15' E 004°14'0 0.0
2018-Apr-15 22:58N 51°15' E 004°14'0 0.0
2018-Apr-15 22:28N 51°15' E 004°14'0 0.0
2018-Apr-15 21:58N 51°15' E 004°14'0 0.0
2018-Apr-15 21:25N 51°15' E 004°14'0 0.0
2018-Apr-15 20:58N 51°15' E 004°14'0 0.0
2018-Apr-15 20:28N 51°15' E 004°14'0 0.0
2018-Apr-15 19:58N 51°15' E 004°14'0 0.0
2018-Apr-15 19:28N 51°15' E 004°14'0 0.0
2018-Apr-15 18:58N 51°15' E 004°14'0 0.0
2018-Apr-15 18:28N 51°15' E 004°14'0 0.0
2018-Apr-15 17:58N 51°15' E 004°14'0 0.0
2018-Apr-15 17:28N 51°15' E 004°14'0 0.0
2018-Apr-15 16:58N 51°15' E 004°14'0 0.0
2018-Apr-15 16:28N 51°15' E 004°14'0 0.0
2018-Apr-15 15:58N 51°15' E 004°14'0 0.0
2018-Apr-15 15:28N 51°15' E 004°14'0 0.0
2018-Apr-15 14:58N 51°15' E 004°14'0 0.0
2018-Apr-15 14:28N 51°15' E 004°14'0 0.0
2018-Apr-15 13:58N 51°15' E 004°14'0 0.0
2018-Apr-15 13:28N 51°15' E 004°14'0 0.0
2018-Apr-15 12:58N 51°15' E 004°14'0 0.0
2018-Apr-15 12:28N 51°15' E 004°14'0 0.0
2018-Apr-15 11:58N 51°15' E 004°14'0 0.0
2018-Apr-15 11:28N 51°15' E 004°14'0 0.0
2018-Apr-15 10:58N 51°15' E 004°14'0 0.0
2018-Apr-15 10:28N 51°15' E 004°14'0 0.0
2018-Apr-15 09:58N 51°15' E 004°14'0 0.0
2018-Apr-15 09:28N 51°15' E 004°14'0 0.0
2018-Apr-15 08:58N 51°15' E 004°14'0 0.0
2018-Apr-15 08:22N 51°15' E 004°14'0 0.0
2018-Apr-15 07:58N 51°15' E 004°14'0 0.0
2018-Apr-15 07:28N 51°15' E 004°14'0 0.0
2018-Apr-15 06:55N 51°15' E 004°14'0 0.0
2018-Apr-15 06:25N 51°15' E 004°14'0 0.0
2018-Apr-15 05:58N 51°15' E 004°14'0 0.0
2018-Apr-15 05:13N 51°15' E 004°14'0 0.0
2018-Apr-15 04:58N 51°15' E 004°14'0 0.0
2018-Apr-15 04:28N 51°15' E 004°14'0 0.0
2018-Apr-15 03:52N 51°15' E 004°14'0 0.0
2018-Apr-15 03:22N 51°15' E 004°14'0 0.0
2018-Apr-15 02:58N 51°15' E 004°14'0 0.0
2018-Apr-15 02:28N 51°15' E 004°14'0 0.0
2018-Apr-15 01:52N 51°15' E 004°14'0 0.0
2018-Apr-15 01:28N 51°15' E 004°14'0 0.0
2018-Apr-15 00:58N 51°15' E 004°14'0 0.0
2018-Apr-15 00:28N 51°15' E 004°14'0 0.0
2018-Apr-14 23:58N 51°15' E 004°14'0 0.0
2018-Apr-14 23:28N 51°15' E 004°14'0 0.0
2018-Apr-14 22:58N 51°15' E 004°14'0 0.0
2018-Apr-14 22:28N 51°15' E 004°14'0 0.0
2018-Apr-14 21:58N 51°15' E 004°14'0 0.0
2018-Apr-14 21:28N 51°15' E 004°14'0 0.0
2018-Apr-14 20:55N 51°15' E 004°14'0 0.0
2018-Apr-14 20:28N 51°15' E 004°14'0 0.0
2018-Apr-14 19:58N 51°15' E 004°14'0 0.0
2018-Apr-14 19:30N 51°15' E 004°14'0 0.7
2018-Apr-14 19:00N 51°16' E 004°14'1 2.2
2018-Apr-14 18:30N 51°17' E 004°15'0 0.0
2018-Apr-14 18:00N 51°17' E 004°15'0 0.4
2018-Apr-14 17:30N 51°17' E 004°15'2 4.3
2018-Apr-14 17:00N 51°19' E 004°16'3 6.4
2018-Apr-14 16:31N 51°22' E 004°13'3 5.9
2018-Apr-14 16:00N 51°23' E 004°09'4 8.6
2018-Apr-14 15:30N 51°23' E 004°02'3 6.5
2018-Apr-14 15:00N 51°25' E 003°58'4 9.0
2018-Apr-14 14:30N 51°22' E 003°54'5 9.2
2018-Apr-14 14:00N 51°21' E 003°47'5 9.5
2018-Apr-14 13:30N 51°25' E 003°42'5 9.8
2018-Apr-14 13:00N 51°26' E 003°34'4 8.7
2018-Apr-14 12:30N 51°25' E 003°28'5 9.3
2018-Apr-14 12:00N 51°24' E 003°20'510.3
2018-Apr-14 11:30N 51°24' E 003°12'612.5
2018-Apr-14 11:00N 51°24' E 003°02'713.7
2018-Apr-14 10:30N 51°22' E 002°52'611.4
2018-Apr-14 09:59N 51°22' E 002°42'4 7.8
2018-Apr-14 09:30N 51°22' E 002°36'4 8.5
2018-Apr-14 09:00N 51°22' E 002°29'3 5.3
2018-Apr-14 08:30N 51°21' E 002°26'3 7.0
2018-Apr-14 08:01N 51°19' E 002°21'5 9.2
2018-Apr-14 07:30N 51°18' E 002°14'2 5.0
2018-Apr-14 07:01N 51°16' E 002°11'5 9.5
2018-Apr-14 06:30N 51°13' E 002°05'5 9.4
2018-Apr-14 06:01N 51°11' E 001°58'5 9.6
2018-Apr-14 05:30N 51°09' E 001°51'5 9.3
2018-Apr-14 05:00N 51°07' E 001°45'5 9.7
2018-Apr-14 04:31N 51°03' E 001°40'510.1
2018-Apr-14 04:00N 50°59' E 001°34'510.6
2018-Apr-14 03:30N 50°55' E 001°29'610.8
2018-Apr-14 02:58N 50°50' E 001°25'511.3
2018-Apr-14 02:30N 50°45' E 001°23'610.9
2018-Apr-14 01:59N 50°40' E 001°18'611.4
2018-Apr-14 01:26N 50°36' E 001°11'511.3
2018-Apr-14 00:58N 50°33' E 001°05'611.5
2018-Apr-14 00:27N 50°29' E 000°56'512.0
2018-Apr-14 00:00N 50°28' E 000°48'811.9
2018-Apr-13 23:20N 50°25' E 000°37'712.0
2018-Apr-13 22:43N 50°23' E 000°26'211.3
2018-Apr-13 22:30N 50°22' E 000°22'510.6
2018-Apr-13 22:00N 50°21' E 000°14'612.4
2018-Apr-13 21:30N 50°19' E 000°05'613.1
2018-Apr-13 21:01N 50°17' W 000°05'713.6
2018-Apr-13 20:31N 50°15' W 000°15'713.2
2018-Apr-13 20:00N 50°14' W 000°25'5 9.7
2018-Apr-13 19:29N 50°13' W 000°33'714.8
2018-Apr-13 19:00N 50°12' W 000°44'815.0
2018-Apr-13 18:30N 50°10' W 000°55'815.0
2018-Apr-13 18:00N 50°09' W 001°07'714.7
2018-Apr-13 17:30N 50°07' W 001°18'714.4
2018-Apr-13 17:00N 50°05' W 001°29'713.9
2018-Apr-13 16:30N 50°03' W 001°39'713.4
2018-Apr-13 16:00N 50°02' W 001°49'612.8
2018-Apr-13 15:30N 50°00' W 001°59'612.1
2018-Apr-13 15:00N 49°58' W 002°08'611.5
2018-Apr-13 14:30N 49°56' W 002°16'611.0
2018-Apr-13 13:56N 49°54' W 002°26'1010.6
2018-Apr-13 12:57N 49°50' W 002°41'510.5
2018-Apr-13 12:30N 49°49' W 002°48'1210.6
2018-Apr-13 11:22N 49°44' W 003°05'511.0
2018-Apr-13 10:57N 49°42' W 003°11'7211.2
2018-Apr-13 04:31N 49°07' W 004°47'112.7
2018-Apr-13 04:25N 49°06' W 004°49'912.7
2018-Apr-13 03:40N 49°02' W 005°02'212.9
2018-Apr-13 03:30N 49°01' W 005°05'813.2
2018-Apr-13 02:55N 48°57' W 005°15'613.2
2018-Apr-13 02:30N 48°54' W 005°22'713.3
2018-Apr-13 01:58N 48°50' W 005°31'713.0
2018-Apr-13 01:28N 48°46' W 005°39'612.8
2018-Apr-13 01:00N 48°41' W 005°42'  
2018-Apr-10 13:59N 39°27' W 009°53'4 8.1
2018-Apr-10 13:30N 39°23' W 009°53'4 7.7
2018-Apr-10 13:00N 39°19' W 009°52'4 7.4
2018-Apr-10 12:30N 39°15' W 009°52'4 7.4
2018-Apr-10 12:00N 39°12' W 009°52'4 7.4
2018-Apr-10 11:30N 39°08' W 009°52'3 6.9
2018-Apr-10 11:00N 39°04' W 009°52'4 7.4
2018-Apr-10 10:30N 39°01' W 009°51'4 8.9
2018-Apr-10 10:00N 38°56' W 009°51'4 8.4
2018-Apr-10 09:30N 38°52' W 009°51'4 8.3
2018-Apr-10 09:00N 38°48' W 009°51'4 8.3
2018-Apr-10 08:30N 38°44' W 009°51'4 8.5
2018-Apr-10 08:00N 38°40' W 009°50'4 8.4
2018-Apr-10 07:30N 38°35' W 009°50'  
Track history (hours):
 
Tides and Currents Weather Stations Pressure Air Temp Water Temp Dewpoint Dewpoint Depression Visibility Wind Speed Wind Dir Waves Ship Positions

Spar Hydra

Last reported at 2018-Apr-20 07:29 UTC. Time now 2018-Apr-20 09:01 UTC.
Position N 55°35' E 010°31'.

Length 190 m; draft 7 m.

Type: Cargo ship. MMSI: 259701000.

Date/timePositionNaut miles runAvg speedWind from/ knotsBaromVisibWave heightAir tempDewpointWater temp
2018-Apr-20 07:29N 55°35' E 010°31'0 0.0
2018-Apr-20 06:56N 55°35' E 010°31'0 0.0
2018-Apr-20 06:17N 55°35' E 010°31'0 0.0
2018-Apr-20 05:59N 55°35' E 010°31'0 0.0
2018-Apr-20 05:29N 55°35' E 010°31'0 0.0
2018-Apr-20 04:44N 55°35' E 010°31'0 0.2
2018-Apr-20 03:43N 55°34' E 010°32'1 2.2
2018-Apr-20 03:19N 55°35' E 010°33'3 9.6
2018-Apr-20 03:00N 55°38' E 010°33'611.1
2018-Apr-20 02:30N 55°41' E 010°42'5 9.1
2018-Apr-20 01:55N 55°45' E 010°48'5 8.2
2018-Apr-20 01:19N 55°50' E 010°48'1010.7
2018-Apr-20 00:22N 55°57' E 010°60'411.8
2018-Apr-20 00:00N 56°01' E 011°04'812.2
2018-Apr-19 23:20N 56°08' E 011°11'412.5
2018-Apr-19 23:00N 56°11' E 011°16'612.3
2018-Apr-19 22:30N 56°17' E 011°22'611.4
2018-Apr-19 21:57N 56°22' E 011°27'611.8
2018-Apr-19 21:29N 56°27' E 011°33'611.1
2018-Apr-19 20:59N 56°32' E 011°37'510.6
2018-Apr-19 20:30N 56°36' E 011°43'4 7.9
2018-Apr-19 20:00N 56°39' E 011°46'612.2
2018-Apr-19 19:30N 56°45' E 011°51'712.7
2018-Apr-19 18:59N 56°51' E 011°48'613.1
2018-Apr-19 18:30N 56°57' E 011°44'612.7
2018-Apr-19 18:00N 57°03' E 011°40'611.3
2018-Apr-19 17:30N 57°08' E 011°37'5 9.6
2018-Apr-19 17:00N 57°13' E 011°34'5 9.5
2018-Apr-19 16:30N 57°17' E 011°31'5 9.6
2018-Apr-19 16:00N 57°22' E 011°28'4 8.1
2018-Apr-19 15:30N 57°25' E 011°25'4 7.1
2018-Apr-19 15:00N 57°29' E 011°22'4 7.2
2018-Apr-19 14:30N 57°31' E 011°17'4 7.2
2018-Apr-19 14:00N 57°34' E 011°12'4 7.5
2018-Apr-19 13:30N 57°36' E 011°07'4 7.6
2018-Apr-19 13:00N 57°39' E 011°02'4 7.4
2018-Apr-19 12:30N 57°41' E 010°57'4 7.5
2018-Apr-19 12:00N 57°44' E 010°52'4 7.9
2018-Apr-19 11:30N 57°46' E 010°46'5 9.6
2018-Apr-19 11:00N 57°49' E 010°39'4 8.5
2018-Apr-19 10:30N 57°50' E 010°31'4 8.3
2018-Apr-19 10:00N 57°51' E 010°24'510.4
2018-Apr-19 09:30N 57°52' E 010°14'510.4
2018-Apr-19 08:59N 57°52' E 010°04'510.5
2018-Apr-19 08:30N 57°52' E 009°55'510.7
2018-Apr-19 08:00N 57°53' E 009°44'510.1
2018-Apr-19 07:30N 57°51' E 009°36'5 9.0
2018-Apr-19 06:59N 57°48' E 009°28'5 9.2
2018-Apr-19 06:29N 57°46' E 009°21'5 9.4
2018-Apr-19 05:56N 57°43' E 009°13'3 7.5
2018-Apr-19 05:30N 57°39' E 009°12'4 8.7
2018-Apr-19 05:00N 57°37' E 009°05'5 9.4
2018-Apr-19 04:29N 57°35' E 008°57'910.7
2018-Apr-19 03:41N 57°31' E 008°43'32013.7
2018-Apr-18 04:18N 53°06' E 003°27'515.7
2018-Apr-18 04:00N 53°02' E 003°25'915.8
2018-Apr-18 03:27N 52°53' E 003°20'815.8
2018-Apr-18 02:57N 52°46' E 003°14'715.6
2018-Apr-18 02:29N 52°40' E 003°08'5012.7
2018-Apr-17 22:35N 51°50' E 003°08'111.9
2018-Apr-17 22:30N 51°50' E 003°09'611.6
2018-Apr-17 21:58N 51°44' E 003°13'510.9
2018-Apr-17 21:30N 51°39' E 003°12'611.6
2018-Apr-17 21:00N 51°34' E 003°09'611.6
2018-Apr-17 20:30N 51°29' E 003°03'4 8.8
2018-Apr-17 20:00N 51°25' E 003°02'815.1
2018-Apr-17 19:30N 51°25' E 003°14'815.9
2018-Apr-17 19:00N 51°25' E 003°27'713.1
2018-Apr-17 18:30N 51°26' E 003°37'713.4
2018-Apr-17 18:00N 51°22' E 003°45'714.5
2018-Apr-17 17:30N 51°23' E 003°57'3 6.8
2018-Apr-17 17:00N 51°23' E 004°02'612.2
2018-Apr-17 16:31N 51°24' E 004°12'611.6
2018-Apr-17 16:01N 51°19' E 004°16'2 4.5
2018-Apr-17 15:31N 51°17' E 004°15'0 0.0
2018-Apr-17 15:01N 51°17' E 004°15'0 0.0
2018-Apr-17 14:30N 51°17' E 004°15'1 1.5
2018-Apr-17 14:00N 51°16' E 004°14'1 1.1
2018-Apr-17 13:22N 51°15' E 004°14'0 0.0
2018-Apr-17 12:58N 51°15' E 004°14'0 0.0
2018-Apr-17 12:28N 51°15' E 004°14'0 0.0
2018-Apr-17 11:58N 51°15' E 004°14'0 0.0
2018-Apr-17 11:28N 51°15' E 004°14'0 0.0
2018-Apr-17 10:58N 51°15' E 004°14'0 0.0
2018-Apr-17 10:28N 51°15' E 004°14'0 0.0
2018-Apr-17 09:58N 51°15' E 004°14'0 0.0
2018-Apr-17 09:28N 51°15' E 004°14'0 0.0
2018-Apr-17 08:58N 51°15' E 004°14'0 0.0
2018-Apr-17 08:28N 51°15' E 004°14'0 0.0
2018-Apr-17 07:58N 51°15' E 004°14'0 0.0
2018-Apr-17 07:22N 51°15' E 004°14'0 0.0
2018-Apr-17 06:52N 51°15' E 004°14'0 0.0
2018-Apr-17 06:25N 51°15' E 004°14'0 0.0
2018-Apr-17 05:58N 51°15' E 004°14'0 0.0
2018-Apr-17 05:28N 51°15' E 004°14'0 0.0
2018-Apr-17 04:58N 51°15' E 004°14'0 0.0
2018-Apr-17 04:28N 51°15' E 004°14'0 0.0
2018-Apr-17 03:55N 51°15' E 004°14'0 0.0
2018-Apr-17 03:28N 51°15' E 004°14'0 0.0
2018-Apr-17 02:58N 51°15' E 004°14'0 0.0
2018-Apr-17 02:28N 51°15' E 004°14'0 0.0
2018-Apr-17 01:58N 51°15' E 004°14'0 0.0
2018-Apr-17 01:25N 51°15' E 004°14'0 0.0
2018-Apr-17 00:58N 51°15' E 004°14'0 0.0
2018-Apr-17 00:28N 51°15' E 004°14'0 0.0
2018-Apr-16 23:58N 51°15' E 004°14'0 0.0
2018-Apr-16 23:28N 51°15' E 004°14'0 0.0
2018-Apr-16 22:58N 51°15' E 004°14'0 0.0
2018-Apr-16 22:28N 51°15' E 004°14'0 0.0
2018-Apr-16 21:58N 51°15' E 004°14'0 0.0
2018-Apr-16 21:28N 51°15' E 004°14'0 0.0
2018-Apr-16 20:58N 51°15' E 004°14'0 0.0
2018-Apr-16 20:28N 51°15' E 004°14'0 0.0
2018-Apr-16 19:55N 51°15' E 004°14'0 0.0
2018-Apr-16 19:28N 51°15' E 004°14'0 0.0
2018-Apr-16 18:49N 51°15' E 004°14'0 0.0
2018-Apr-16 18:28N 51°15' E 004°14'0 0.0
2018-Apr-16 17:55N 51°15' E 004°14'0 0.0
2018-Apr-16 17:28N 51°15' E 004°14'0 0.0
2018-Apr-16 16:55N 51°15' E 004°14'0 0.0
2018-Apr-16 16:28N 51°15' E 004°14'0 0.0
2018-Apr-16 15:58N 51°15' E 004°14'0 0.0
2018-Apr-16 15:28N 51°15' E 004°14'0 0.0
2018-Apr-16 14:58N 51°15' E 004°14'0 0.0
2018-Apr-16 14:19N 51°15' E 004°14'0 0.0
2018-Apr-16 13:55N 51°15' E 004°14'0 0.0
2018-Apr-16 13:28N 51°15' E 004°14'0 0.0
2018-Apr-16 12:58N 51°15' E 004°14'0 0.0
2018-Apr-16 12:28N 51°15' E 004°14'0 0.0
2018-Apr-16 11:49N 51°15' E 004°14'0 0.0
2018-Apr-16 11:25N 51°15' E 004°14'0 0.0
2018-Apr-16 10:55N 51°15' E 004°14'0 0.0
2018-Apr-16 10:28N 51°15' E 004°14'0 0.0
2018-Apr-16 09:55N 51°15' E 004°14'0 0.0
2018-Apr-16 09:28N 51°15' E 004°14'0 0.0
2018-Apr-16 08:58N 51°15' E 004°14'0 0.0
2018-Apr-16 08:25N 51°15' E 004°14'0 0.0
2018-Apr-16 07:55N 51°15' E 004°14'0 0.0
2018-Apr-16 07:28N 51°15' E 004°14'0 0.0
2018-Apr-16 06:58N 51°15' E 004°14'0 0.0
2018-Apr-16 06:28N 51°15' E 004°14'0 0.0
2018-Apr-16 05:58N 51°15' E 004°14'0 0.0
2018-Apr-16 05:28N 51°15' E 004°14'0 0.0
2018-Apr-16 04:58N 51°15' E 004°14'0 0.0
2018-Apr-16 04:25N 51°15' E 004°14'0 0.0
2018-Apr-16 03:52N 51°15' E 004°14'0 0.0
2018-Apr-16 03:28N 51°15' E 004°14'0 0.0
2018-Apr-16 02:58N 51°15' E 004°14'0 0.0
2018-Apr-16 02:28N 51°15' E 004°14'0 0.0
2018-Apr-16 01:58N 51°15' E 004°14'0 0.0
2018-Apr-16 01:28N 51°15' E 004°14'0 0.0
2018-Apr-16 00:58N 51°15' E 004°14'0 0.0
2018-Apr-16 00:28N 51°15' E 004°14'0 0.0
2018-Apr-15 23:58N 51°15' E 004°14'0 0.0
2018-Apr-15 23:28N 51°15' E 004°14'0 0.0
2018-Apr-15 22:58N 51°15' E 004°14'0 0.0
2018-Apr-15 22:28N 51°15' E 004°14'0 0.0
2018-Apr-15 21:58N 51°15' E 004°14'0 0.0
2018-Apr-15 21:25N 51°15' E 004°14'0 0.0
2018-Apr-15 20:58N 51°15' E 004°14'0 0.0
2018-Apr-15 20:28N 51°15' E 004°14'0 0.0
2018-Apr-15 19:58N 51°15' E 004°14'0 0.0
2018-Apr-15 19:28N 51°15' E 004°14'0 0.0
2018-Apr-15 18:58N 51°15' E 004°14'0 0.0
2018-Apr-15 18:28N 51°15' E 004°14'0 0.0
2018-Apr-15 17:58N 51°15' E 004°14'0 0.0
2018-Apr-15 17:28N 51°15' E 004°14'0 0.0
2018-Apr-15 16:58N 51°15' E 004°14'0 0.0
2018-Apr-15 16:28N 51°15' E 004°14'0 0.0
2018-Apr-15 15:58N 51°15' E 004°14'0 0.0
2018-Apr-15 15:28N 51°15' E 004°14'0 0.0
2018-Apr-15 14:58N 51°15' E 004°14'0 0.0
2018-Apr-15 14:28N 51°15' E 004°14'0 0.0
2018-Apr-15 13:58N 51°15' E 004°14'0 0.0
2018-Apr-15 13:28N 51°15' E 004°14'0 0.0
2018-Apr-15 12:58N 51°15' E 004°14'0 0.0
2018-Apr-15 12:28N 51°15' E 004°14'0 0.0
2018-Apr-15 11:58N 51°15' E 004°14'0 0.0
2018-Apr-15 11:28N 51°15' E 004°14'0 0.0
2018-Apr-15 10:58N 51°15' E 004°14'0 0.0
2018-Apr-15 10:28N 51°15' E 004°14'0 0.0
2018-Apr-15 09:58N 51°15' E 004°14'0 0.0
2018-Apr-15 09:28N 51°15' E 004°14'0 0.0
2018-Apr-15 08:58N 51°15' E 004°14'0 0.0
2018-Apr-15 08:22N 51°15' E 004°14'0 0.0
2018-Apr-15 07:58N 51°15' E 004°14'0 0.0
2018-Apr-15 07:28N 51°15' E 004°14'0 0.0
2018-Apr-15 06:55N 51°15' E 004°14'0 0.0
2018-Apr-15 06:25N 51°15' E 004°14'0 0.0
2018-Apr-15 05:58N 51°15' E 004°14'0 0.0
2018-Apr-15 05:13N 51°15' E 004°14'0 0.0
2018-Apr-15 04:58N 51°15' E 004°14'0 0.0
2018-Apr-15 04:28N 51°15' E 004°14'0 0.0
2018-Apr-15 03:52N 51°15' E 004°14'0 0.0
2018-Apr-15 03:22N 51°15' E 004°14'0 0.0
2018-Apr-15 02:58N 51°15' E 004°14'0 0.0
2018-Apr-15 02:28N 51°15' E 004°14'0 0.0
2018-Apr-15 01:52N 51°15' E 004°14'0 0.0
2018-Apr-15 01:28N 51°15' E 004°14'0 0.0
2018-Apr-15 00:58N 51°15' E 004°14'0 0.0
2018-Apr-15 00:28N 51°15' E 004°14'0 0.0
2018-Apr-14 23:58N 51°15' E 004°14'0 0.0
2018-Apr-14 23:28N 51°15' E 004°14'0 0.0
2018-Apr-14 22:58N 51°15' E 004°14'0 0.0
2018-Apr-14 22:28N 51°15' E 004°14'0 0.0
2018-Apr-14 21:58N 51°15' E 004°14'0 0.0
2018-Apr-14 21:28N 51°15' E 004°14'0 0.0
2018-Apr-14 20:55N 51°15' E 004°14'0 0.0
2018-Apr-14 20:28N 51°15' E 004°14'0 0.0
2018-Apr-14 19:58N 51°15' E 004°14'0 0.0
2018-Apr-14 19:30N 51°15' E 004°14'0 0.7
2018-Apr-14 19:00N 51°16' E 004°14'1 2.2
2018-Apr-14 18:30N 51°17' E 004°15'0 0.0
2018-Apr-14 18:00N 51°17' E 004°15'0 0.4
2018-Apr-14 17:30N 51°17' E 004°15'2 4.3
2018-Apr-14 17:00N 51°19' E 004°16'3 6.4
2018-Apr-14 16:31N 51°22' E 004°13'3 5.9
2018-Apr-14 16:00N 51°23' E 004°09'4 8.6
2018-Apr-14 15:30N 51°23' E 004°02'3 6.5
2018-Apr-14 15:00N 51°25' E 003°58'4 9.0
2018-Apr-14 14:30N 51°22' E 003°54'5 9.2
2018-Apr-14 14:00N 51°21' E 003°47'5 9.5
2018-Apr-14 13:30N 51°25' E 003°42'5 9.8
2018-Apr-14 13:00N 51°26' E 003°34'4 8.7
2018-Apr-14 12:30N 51°25' E 003°28'5 9.3
2018-Apr-14 12:00N 51°24' E 003°20'510.3
2018-Apr-14 11:30N 51°24' E 003°12'612.5
2018-Apr-14 11:00N 51°24' E 003°02'713.7
2018-Apr-14 10:30N 51°22' E 002°52'611.4
2018-Apr-14 09:59N 51°22' E 002°42'4 7.8
2018-Apr-14 09:30N 51°22' E 002°36'4 8.5
2018-Apr-14 09:00N 51°22' E 002°29'3 5.3
2018-Apr-14 08:30N 51°21' E 002°26'3 7.0
2018-Apr-14 08:01N 51°19' E 002°21'5 9.2
2018-Apr-14 07:30N 51°18' E 002°14'2 5.0
2018-Apr-14 07:01N 51°16' E 002°11'5 9.5
2018-Apr-14 06:30N 51°13' E 002°05'5 9.4
2018-Apr-14 06:01N 51°11' E 001°58'5 9.6
2018-Apr-14 05:30N 51°09' E 001°51'5 9.3
2018-Apr-14 05:00N 51°07' E 001°45'5 9.7
2018-Apr-14 04:31N 51°03' E 001°40'510.1
2018-Apr-14 04:00N 50°59' E 001°34'510.6
2018-Apr-14 03:30N 50°55' E 001°29'610.8
2018-Apr-14 02:58N 50°50' E 001°25'511.3
2018-Apr-14 02:30N 50°45' E 001°23'610.9
2018-Apr-14 01:59N 50°40' E 001°18'611.4
2018-Apr-14 01:26N 50°36' E 001°11'511.3
2018-Apr-14 00:58N 50°33' E 001°05'611.5
2018-Apr-14 00:27N 50°29' E 000°56'512.0
2018-Apr-14 00:00N 50°28' E 000°48'811.9
2018-Apr-13 23:20N 50°25' E 000°37'712.0
2018-Apr-13 22:43N 50°23' E 000°26'211.3
2018-Apr-13 22:30N 50°22' E 000°22'510.6
2018-Apr-13 22:00N 50°21' E 000°14'612.4
2018-Apr-13 21:30N 50°19' E 000°05'613.1
2018-Apr-13 21:01N 50°17' W 000°05'713.6
2018-Apr-13 20:31N 50°15' W 000°15'713.2
2018-Apr-13 20:00N 50°14' W 000°25'5 9.7
2018-Apr-13 19:29N 50°13' W 000°33'714.8
2018-Apr-13 19:00N 50°12' W 000°44'815.0
2018-Apr-13 18:30N 50°10' W 000°55'815.0
2018-Apr-13 18:00N 50°09' W 001°07'714.7
2018-Apr-13 17:30N 50°07' W 001°18'714.4
2018-Apr-13 17:00N 50°05' W 001°29'713.9
2018-Apr-13 16:30N 50°03' W 001°39'713.4
2018-Apr-13 16:00N 50°02' W 001°49'612.8
2018-Apr-13 15:30N 50°00' W 001°59'612.1
2018-Apr-13 15:00N 49°58' W 002°08'611.5
2018-Apr-13 14:30N 49°56' W 002°16'611.0
2018-Apr-13 13:56N 49°54' W 002°26'1010.6
2018-Apr-13 12:57N 49°50' W 002°41'510.5
2018-Apr-13 12:30N 49°49' W 002°48'1210.6
2018-Apr-13 11:22N 49°44' W 003°05'511.0
2018-Apr-13 10:57N 49°42' W 003°11'7211.2
2018-Apr-13 04:31N 49°07' W 004°47'112.7
2018-Apr-13 04:25N 49°06' W 004°49'912.7
2018-Apr-13 03:40N 49°02' W 005°02'212.9
2018-Apr-13 03:30N 49°01' W 005°05'813.2
2018-Apr-13 02:55N 48°57' W 005°15'613.2
2018-Apr-13 02:30N 48°54' W 005°22'713.3
2018-Apr-13 01:58N 48°50' W 005°31'713.0
2018-Apr-13 01:28N 48°46' W 005°39'612.8
2018-Apr-13 01:00N 48°41' W 005°42'  
2018-Apr-10 13:59N 39°27' W 009°53'4 8.1
2018-Apr-10 13:30N 39°23' W 009°53'4 7.7
2018-Apr-10 13:00N 39°19' W 009°52'4 7.4
2018-Apr-10 12:30N 39°15' W 009°52'4 7.4
2018-Apr-10 12:00N 39°12' W 009°52'4 7.4
2018-Apr-10 11:30N 39°08' W 009°52'3 6.9
2018-Apr-10 11:00N 39°04' W 009°52'4 7.4
2018-Apr-10 10:30N 39°01' W 009°51'4 8.9
2018-Apr-10 10:00N 38°56' W 009°51'4 8.4
2018-Apr-10 09:30N 38°52' W 009°51'4 8.3
2018-Apr-10 09:00N 38°48' W 009°51'4 8.3
2018-Apr-10 08:30N 38°44' W 009°51'4 8.5
2018-Apr-10 08:00N 38°40' W 009°50'4 8.4
2018-Apr-10 07:30N 38°35' W 009°50'  

Dump ship's entire track history